sensor_id;sensor_type;location;lat;lon;timestamp;P1;durP1;ratioP1;P2;durP2;ratioP2
21148;SDS011;10732;51.472;6.466;2023-05-07T00:00:32;11.02;;;9.93;;
21148;SDS011;10732;51.472;6.466;2023-05-07T00:02:59;12.38;;;10.95;;
21148;SDS011;10732;51.472;6.466;2023-05-07T00:05:24;11.50;;;10.45;;
21148;SDS011;10732;51.472;6.466;2023-05-07T00:07:50;12.52;;;11.20;;
21148;SDS011;10732;51.472;6.466;2023-05-07T00:10:17;12.65;;;11.32;;
21148;SDS011;10732;51.472;6.466;2023-05-07T00:12:43;13.85;;;12.40;;
21148;SDS011;10732;51.472;6.466;2023-05-07T00:15:09;14.95;;;12.88;;
21148;SDS011;10732;51.472;6.466;2023-05-07T00:17:35;13.07;;;11.82;;
21148;SDS011;10732;51.472;6.466;2023-05-07T00:20:01;13.40;;;12.10;;
21148;SDS011;10732;51.472;6.466;2023-05-07T00:22:28;15.00;;;12.50;;
21148;SDS011;10732;51.472;6.466;2023-05-07T00:24:55;14.13;;;12.65;;
21148;SDS011;10732;51.472;6.466;2023-05-07T00:27:20;15.13;;;12.75;;
21148;SDS011;10732;51.472;6.466;2023-05-07T00:29:46;12.93;;;11.63;;
21148;SDS011;10732;51.472;6.466;2023-05-07T00:32:12;13.32;;;11.95;;
21148;SDS011;10732;51.472;6.466;2023-05-07T00:34:37;13.65;;;11.93;;
21148;SDS011;10732;51.472;6.466;2023-05-07T00:37:04;15.73;;;12.32;;
21148;SDS011;10732;51.472;6.466;2023-05-07T00:39:32;13.23;;;11.93;;
21148;SDS011;10732;51.472;6.466;2023-05-07T00:41:58;14.40;;;12.23;;
21148;SDS011;10732;51.472;6.466;2023-05-07T00:44:24;16.05;;;12.43;;
21148;SDS011;10732;51.472;6.466;2023-05-07T00:46:50;15.10;;;13.48;;
21148;SDS011;10732;51.472;6.466;2023-05-07T00:49:16;15.02;;;13.43;;
21148;SDS011;10732;51.472;6.466;2023-05-07T00:51:41;17.55;;;14.55;;
21148;SDS011;10732;51.472;6.466;2023-05-07T00:54:07;17.73;;;15.82;;
21148;SDS011;10732;51.472;6.466;2023-05-07T00:56:34;16.45;;;14.75;;
21148;SDS011;10732;51.472;6.466;2023-05-07T00:59:00;20.13;;;15.70;;
21148;SDS011;10732;51.472;6.466;2023-05-07T01:01:26;17.80;;;14.75;;
21148;SDS011;10732;51.472;6.466;2023-05-07T01:03:52;17.92;;;15.70;;
21148;SDS011;10732;51.472;6.466;2023-05-07T01:06:18;16.85;;;15.15;;
21148;SDS011;10732;51.472;6.466;2023-05-07T01:08:46;17.65;;;15.95;;
21148;SDS011;10732;51.472;6.466;2023-05-07T01:11:12;17.50;;;15.57;;
21148;SDS011;10732;51.472;6.466;2023-05-07T01:13:38;18.65;;;16.55;;
21148;SDS011;10732;51.472;6.466;2023-05-07T01:16:05;18.67;;;16.80;;
21148;SDS011;10732;51.472;6.466;2023-05-07T01:18:31;21.25;;;18.60;;
21148;SDS011;10732;51.472;6.466;2023-05-07T01:20:58;18.08;;;16.17;;
21148;SDS011;10732;51.472;6.466;2023-05-07T01:23:25;17.65;;;15.95;;
21148;SDS011;10732;51.472;6.466;2023-05-07T01:25:52;17.50;;;15.57;;
21148;SDS011;10732;51.472;6.466;2023-05-07T01:28:18;17.13;;;15.38;;
21148;SDS011;10732;51.472;6.466;2023-05-07T01:30:44;17.98;;;16.15;;
21148;SDS011;10732;51.472;6.466;2023-05-07T01:33:13;19.65;;;16.65;;
21148;SDS011;10732;51.472;6.466;2023-05-07T01:35:43;18.02;;;16.27;;
21148;SDS011;10732;51.472;6.466;2023-05-07T01:38:12;19.25;;;16.20;;
21148;SDS011;10732;51.472;6.466;2023-05-07T01:40:38;18.20;;;16.40;;
21148;SDS011;10732;51.472;6.466;2023-05-07T01:43:04;19.38;;;17.48;;
21148;SDS011;10732;51.472;6.466;2023-05-07T01:45:30;19.40;;;17.23;;
21148;SDS011;10732;51.472;6.466;2023-05-07T01:47:57;19.27;;;17.10;;
21148;SDS011;10732;51.472;6.466;2023-05-07T01:50:23;21.10;;;18.75;;
21148;SDS011;10732;51.472;6.466;2023-05-07T01:52:50;22.38;;;19.98;;
21148;SDS011;10732;51.472;6.466;2023-05-07T01:55:16;21.73;;;19.65;;
21148;SDS011;10732;51.472;6.466;2023-05-07T01:57:42;24.20;;;20.67;;
21148;SDS011;10732;51.472;6.466;2023-05-07T02:00:07;23.52;;;21.13;;
21148;SDS011;10732;51.472;6.466;2023-05-07T02:02:34;24.20;;;21.73;;
21148;SDS011;10732;51.472;6.466;2023-05-07T02:04:59;27.55;;;24.17;;
21148;SDS011;10732;51.472;6.466;2023-05-07T02:07:26;26.92;;;23.15;;
21148;SDS011;10732;51.472;6.466;2023-05-07T02:09:52;27.58;;;24.23;;
21148;SDS011;10732;51.472;6.466;2023-05-07T02:12:20;29.25;;;25.17;;
21148;SDS011;10732;51.472;6.466;2023-05-07T02:14:46;29.98;;;26.27;;
21148;SDS011;10732;51.472;6.466;2023-05-07T02:17:11;33.00;;;26.55;;
21148;SDS011;10732;51.472;6.466;2023-05-07T02:19:37;31.17;;;26.02;;
21148;SDS011;10732;51.472;6.466;2023-05-07T02:22:02;29.83;;;26.25;;
21148;SDS011;10732;51.472;6.466;2023-05-07T02:24:28;29.58;;;25.77;;
21148;SDS011;10732;51.472;6.466;2023-05-07T02:26:53;29.85;;;26.70;;
21148;SDS011;10732;51.472;6.466;2023-05-07T02:29:19;31.73;;;28.25;;
21148;SDS011;10732;51.472;6.466;2023-05-07T02:31:44;33.58;;;29.75;;
21148;SDS011;10732;51.472;6.466;2023-05-07T02:34:10;34.67;;;30.65;;
21148;SDS011;10732;51.472;6.466;2023-05-07T02:36:36;34.85;;;28.95;;
21148;SDS011;10732;51.472;6.466;2023-05-07T02:39:01;39.47;;;29.85;;
21148;SDS011;10732;51.472;6.466;2023-05-07T02:41:27;38.35;;;30.58;;
21148;SDS011;10732;51.472;6.466;2023-05-07T02:43:53;34.72;;;29.17;;
21148;SDS011;10732;51.472;6.466;2023-05-07T02:46:19;34.30;;;30.60;;
21148;SDS011;10732;51.472;6.466;2023-05-07T02:48:44;33.15;;;29.30;;
21148;SDS011;10732;51.472;6.466;2023-05-07T02:51:10;37.10;;;30.63;;
21148;SDS011;10732;51.472;6.466;2023-05-07T02:53:35;34.33;;;30.02;;
21148;SDS011;10732;51.472;6.466;2023-05-07T02:56:01;38.38;;;32.05;;
21148;SDS011;10732;51.472;6.466;2023-05-07T02:58:27;36.80;;;32.35;;
21148;SDS011;10732;51.472;6.466;2023-05-07T03:00:53;41.90;;;34.15;;
21148;SDS011;10732;51.472;6.466;2023-05-07T03:03:22;37.83;;;32.55;;
21148;SDS011;10732;51.472;6.466;2023-05-07T03:05:47;36.53;;;32.03;;
21148;SDS011;10732;51.472;6.466;2023-05-07T03:08:13;35.95;;;30.92;;
21148;SDS011;10732;51.472;6.466;2023-05-07T03:10:39;38.13;;;31.70;;
21148;SDS011;10732;51.472;6.466;2023-05-07T03:13:04;38.08;;;31.60;;
21148;SDS011;10732;51.472;6.466;2023-05-07T03:15:30;38.30;;;33.10;;
21148;SDS011;10732;51.472;6.466;2023-05-07T03:17:55;35.65;;;31.15;;
21148;SDS011;10732;51.472;6.466;2023-05-07T03:20:21;36.30;;;30.30;;
21148;SDS011;10732;51.472;6.466;2023-05-07T03:22:47;37.95;;;31.73;;
21148;SDS011;10732;51.472;6.466;2023-05-07T03:25:12;40.65;;;33.10;;
21148;SDS011;10732;51.472;6.466;2023-05-07T03:27:39;37.25;;;32.65;;
21148;SDS011;10732;51.472;6.466;2023-05-07T03:30:06;37.17;;;31.13;;
21148;SDS011;10732;51.472;6.466;2023-05-07T03:32:33;39.63;;;31.90;;
21148;SDS011;10732;51.472;6.466;2023-05-07T03:35:00;38.63;;;30.85;;
21148;SDS011;10732;51.472;6.466;2023-05-07T03:37:25;33.03;;;29.40;;
21148;SDS011;10732;51.472;6.466;2023-05-07T03:39:51;35.60;;;29.27;;
21148;SDS011;10732;51.472;6.466;2023-05-07T03:42:16;38.97;;;31.60;;
21148;SDS011;10732;51.472;6.466;2023-05-07T03:44:43;36.30;;;31.40;;
21148;SDS011;10732;51.472;6.466;2023-05-07T03:47:09;37.97;;;30.92;;
21148;SDS011;10732;51.472;6.466;2023-05-07T03:49:35;34.70;;;29.92;;
21148;SDS011;10732;51.472;6.466;2023-05-07T03:52:01;34.85;;;29.98;;
21148;SDS011;10732;51.472;6.466;2023-05-07T03:54:26;34.78;;;30.08;;
21148;SDS011;10732;51.472;6.466;2023-05-07T03:56:52;34.80;;;30.00;;
21148;SDS011;10732;51.472;6.466;2023-05-07T03:59:17;33.55;;;29.95;;
21148;SDS011;10732;51.472;6.466;2023-05-07T04:01:43;37.25;;;31.80;;
21148;SDS011;10732;51.472;6.466;2023-05-07T04:04:08;41.58;;;32.17;;
21148;SDS011;10732;51.472;6.466;2023-05-07T04:06:34;43.33;;;33.47;;
21148;SDS011;10732;51.472;6.466;2023-05-07T04:08:59;43.60;;;39.00;;
21148;SDS011;10732;51.472;6.466;2023-05-07T04:11:25;40.50;;;36.10;;
21148;SDS011;10732;51.472;6.466;2023-05-07T04:13:51;36.33;;;32.42;;
21148;SDS011;10732;51.472;6.466;2023-05-07T04:16:17;36.67;;;31.95;;
21148;SDS011;10732;51.472;6.466;2023-05-07T04:18:42;41.20;;;34.03;;
21148;SDS011;10732;51.472;6.466;2023-05-07T04:21:15;42.55;;;35.00;;
21148;SDS011;10732;51.472;6.466;2023-05-07T04:23:45;41.50;;;34.45;;
21148;SDS011;10732;51.472;6.466;2023-05-07T04:26:11;42.00;;;35.58;;
21148;SDS011;10732;51.472;6.466;2023-05-07T04:28:38;40.38;;;34.25;;
21148;SDS011;10732;51.472;6.466;2023-05-07T04:31:04;36.58;;;32.15;;
21148;SDS011;10732;51.472;6.466;2023-05-07T04:33:30;37.13;;;31.80;;
21148;SDS011;10732;51.472;6.466;2023-05-07T04:35:56;34.67;;;31.05;;
21148;SDS011;10732;51.472;6.466;2023-05-07T04:38:21;34.85;;;31.23;;
21148;SDS011;10732;51.472;6.466;2023-05-07T04:40:48;36.17;;;31.80;;
21148;SDS011;10732;51.472;6.466;2023-05-07T04:43:14;34.78;;;31.10;;
21148;SDS011;10732;51.472;6.466;2023-05-07T04:45:39;37.88;;;31.88;;
21148;SDS011;10732;51.472;6.466;2023-05-07T04:48:06;34.90;;;30.70;;
21148;SDS011;10732;51.472;6.466;2023-05-07T04:50:32;33.83;;;30.15;;
21148;SDS011;10732;51.472;6.466;2023-05-07T04:52:58;38.45;;;31.67;;
21148;SDS011;10732;51.472;6.466;2023-05-07T04:55:23;34.42;;;30.73;;
21148;SDS011;10732;51.472;6.466;2023-05-07T04:57:49;34.10;;;29.40;;
21148;SDS011;10732;51.472;6.466;2023-05-07T05:00:15;33.50;;;29.02;;
21148;SDS011;10732;51.472;6.466;2023-05-07T05:02:41;32.60;;;27.85;;
21148;SDS011;10732;51.472;6.466;2023-05-07T05:05:07;31.17;;;26.52;;
21148;SDS011;10732;51.472;6.466;2023-05-07T05:07:33;29.27;;;24.85;;
21148;SDS011;10732;51.472;6.466;2023-05-07T05:09:58;27.20;;;24.27;;
21148;SDS011;10732;51.472;6.466;2023-05-07T05:12:24;24.80;;;21.50;;
21148;SDS011;10732;51.472;6.466;2023-05-07T05:14:49;21.65;;;18.02;;
21148;SDS011;10732;51.472;6.466;2023-05-07T05:17:15;17.65;;;14.88;;
21148;SDS011;10732;51.472;6.466;2023-05-07T05:19:41;16.08;;;13.77;;
21148;SDS011;10732;51.472;6.466;2023-05-07T05:22:06;15.48;;;12.88;;
21148;SDS011;10732;51.472;6.466;2023-05-07T05:24:32;16.13;;;13.05;;
21148;SDS011;10732;51.472;6.466;2023-05-07T05:26:57;14.40;;;12.85;;
21148;SDS011;10732;51.472;6.466;2023-05-07T05:29:24;15.30;;;12.98;;
21148;SDS011;10732;51.472;6.466;2023-05-07T05:31:50;14.48;;;12.93;;
21148;SDS011;10732;51.472;6.466;2023-05-07T05:34:15;13.35;;;11.60;;
21148;SDS011;10732;51.472;6.466;2023-05-07T05:36:42;13.98;;;11.55;;
21148;SDS011;10732;51.472;6.466;2023-05-07T05:39:08;14.02;;;11.50;;
21148;SDS011;10732;51.472;6.466;2023-05-07T05:41:34;15.45;;;11.95;;
21148;SDS011;10732;51.472;6.466;2023-05-07T05:43:59;14.18;;;11.48;;
21148;SDS011;10732;51.472;6.466;2023-05-07T05:46:25;13.52;;;11.43;;
21148;SDS011;10732;51.472;6.466;2023-05-07T05:48:50;14.00;;;10.57;;
21148;SDS011;10732;51.472;6.466;2023-05-07T05:51:16;13.70;;;9.90;;
21148;SDS011;10732;51.472;6.466;2023-05-07T05:53:42;13.93;;;10.48;;
21148;SDS011;10732;51.472;6.466;2023-05-07T05:56:07;12.88;;;10.35;;
21148;SDS011;10732;51.472;6.466;2023-05-07T05:58:33;12.52;;;9.60;;
21148;SDS011;10732;51.472;6.466;2023-05-07T06:00:58;10.15;;;8.48;;
21148;SDS011;10732;51.472;6.466;2023-05-07T06:03:24;10.75;;;8.13;;
21148;SDS011;10732;51.472;6.466;2023-05-07T06:05:49;10.48;;;8.45;;
21148;SDS011;10732;51.472;6.466;2023-05-07T06:08:15;10.27;;;8.07;;
21148;SDS011;10732;51.472;6.466;2023-05-07T06:10:40;9.55;;;7.88;;
21148;SDS011;10732;51.472;6.466;2023-05-07T06:13:06;10.85;;;8.73;;
21148;SDS011;10732;51.472;6.466;2023-05-07T06:15:32;10.80;;;8.13;;
21148;SDS011;10732;51.472;6.466;2023-05-07T06:17:57;10.23;;;8.05;;
21148;SDS011;10732;51.472;6.466;2023-05-07T06:20:23;11.73;;;8.63;;
21148;SDS011;10732;51.472;6.466;2023-05-07T06:22:49;10.07;;;8.52;;
21148;SDS011;10732;51.472;6.466;2023-05-07T06:25:14;10.65;;;8.48;;
21148;SDS011;10732;51.472;6.466;2023-05-07T06:27:40;10.65;;;8.90;;
21148;SDS011;10732;51.472;6.466;2023-05-07T06:30:06;10.95;;;8.30;;
21148;SDS011;10732;51.472;6.466;2023-05-07T06:32:32;13.23;;;8.95;;
21148;SDS011;10732;51.472;6.466;2023-05-07T06:34:57;11.40;;;8.52;;
21148;SDS011;10732;51.472;6.466;2023-05-07T06:37:23;12.07;;;9.57;;
21148;SDS011;10732;51.472;6.466;2023-05-07T06:39:48;12.63;;;10.00;;
21148;SDS011;10732;51.472;6.466;2023-05-07T06:42:14;12.55;;;9.93;;
21148;SDS011;10732;51.472;6.466;2023-05-07T06:44:40;11.70;;;9.82;;
21148;SDS011;10732;51.472;6.466;2023-05-07T06:47:05;12.73;;;10.02;;
21148;SDS011;10732;51.472;6.466;2023-05-07T06:49:31;11.63;;;9.48;;
21148;SDS011;10732;51.472;6.466;2023-05-07T06:51:57;12.95;;;9.30;;
21148;SDS011;10732;51.472;6.466;2023-05-07T06:54:23;13.23;;;9.05;;
21148;SDS011;10732;51.472;6.466;2023-05-07T06:56:48;12.50;;;9.27;;
21148;SDS011;10732;51.472;6.466;2023-05-07T06:59:14;12.23;;;8.65;;
21148;SDS011;10732;51.472;6.466;2023-05-07T07:01:40;11.60;;;8.48;;
21148;SDS011;10732;51.472;6.466;2023-05-07T07:04:06;10.93;;;9.02;;
21148;SDS011;10732;51.472;6.466;2023-05-07T07:06:31;9.75;;;8.73;;
21148;SDS011;10732;51.472;6.466;2023-05-07T07:08:57;13.57;;;9.00;;
21148;SDS011;10732;51.472;6.466;2023-05-07T07:11:23;11.43;;;8.48;;
21148;SDS011;10732;51.472;6.466;2023-05-07T07:13:49;11.10;;;8.38;;
21148;SDS011;10732;51.472;6.466;2023-05-07T07:16:15;10.82;;;8.18;;
21148;SDS011;10732;51.472;6.466;2023-05-07T07:18:41;12.45;;;8.48;;
21148;SDS011;10732;51.472;6.466;2023-05-07T07:21:07;12.27;;;8.95;;
21148;SDS011;10732;51.472;6.466;2023-05-07T07:23:33;11.73;;;8.30;;
21148;SDS011;10732;51.472;6.466;2023-05-07T07:25:58;9.88;;;8.77;;
21148;SDS011;10732;51.472;6.466;2023-05-07T07:28:24;10.63;;;8.07;;
21148;SDS011;10732;51.472;6.466;2023-05-07T07:30:49;11.57;;;7.70;;
21148;SDS011;10732;51.472;6.466;2023-05-07T07:33:15;8.90;;;7.38;;
21148;SDS011;10732;51.472;6.466;2023-05-07T07:35:41;10.45;;;8.48;;
21148;SDS011;10732;51.472;6.466;2023-05-07T07:38:06;8.98;;;7.13;;
21148;SDS011;10732;51.472;6.466;2023-05-07T07:40:34;9.27;;;6.72;;
21148;SDS011;10732;51.472;6.466;2023-05-07T07:42:59;10.23;;;6.35;;
21148;SDS011;10732;51.472;6.466;2023-05-07T07:45:26;9.32;;;6.45;;
21148;SDS011;10732;51.472;6.466;2023-05-07T07:47:52;10.45;;;6.43;;
21148;SDS011;10732;51.472;6.466;2023-05-07T07:50:17;9.70;;;6.22;;
21148;SDS011;10732;51.472;6.466;2023-05-07T07:52:43;7.90;;;5.85;;
21148;SDS011;10732;51.472;6.466;2023-05-07T07:55:09;8.30;;;5.18;;
21148;SDS011;10732;51.472;6.466;2023-05-07T07:57:34;9.48;;;5.90;;
21148;SDS011;10732;51.472;6.466;2023-05-07T08:00:00;8.88;;;5.80;;
21148;SDS011;10732;51.472;6.466;2023-05-07T08:02:26;9.88;;;5.63;;
21148;SDS011;10732;51.472;6.466;2023-05-07T08:04:51;9.57;;;5.30;;
21148;SDS011;10732;51.472;6.466;2023-05-07T08:07:17;6.93;;;5.35;;
21148;SDS011;10732;51.472;6.466;2023-05-07T08:09:45;9.82;;;5.18;;
21148;SDS011;10732;51.472;6.466;2023-05-07T08:12:11;8.80;;;5.40;;
21148;SDS011;10732;51.472;6.466;2023-05-07T08:14:37;6.88;;;4.78;;
21148;SDS011;10732;51.472;6.466;2023-05-07T08:17:03;7.80;;;4.38;;
21148;SDS011;10732;51.472;6.466;2023-05-07T08:19:29;8.15;;;4.30;;
21148;SDS011;10732;51.472;6.466;2023-05-07T08:21:55;9.60;;;5.30;;
21148;SDS011;10732;51.472;6.466;2023-05-07T08:24:20;8.65;;;4.35;;
21148;SDS011;10732;51.472;6.466;2023-05-07T08:26:46;8.10;;;4.20;;
21148;SDS011;10732;51.472;6.466;2023-05-07T08:29:11;7.63;;;4.30;;
21148;SDS011;10732;51.472;6.466;2023-05-07T08:31:37;5.43;;;4.30;;
21148;SDS011;10732;51.472;6.466;2023-05-07T08:34:05;5.38;;;3.83;;
21148;SDS011;10732;51.472;6.466;2023-05-07T08:36:31;6.10;;;4.20;;
21148;SDS011;10732;51.472;6.466;2023-05-07T08:38:57;6.63;;;4.10;;
21148;SDS011;10732;51.472;6.466;2023-05-07T08:41:22;8.35;;;4.10;;
21148;SDS011;10732;51.472;6.466;2023-05-07T08:43:49;5.10;;;4.10;;
21148;SDS011;10732;51.472;6.466;2023-05-07T08:46:19;6.28;;;4.18;;
21148;SDS011;10732;51.472;6.466;2023-05-07T08:48:49;5.95;;;3.70;;
21148;SDS011;10732;51.472;6.466;2023-05-07T08:51:16;8.07;;;4.22;;
21148;SDS011;10732;51.472;6.466;2023-05-07T08:53:44;9.40;;;4.15;;
21148;SDS011;10732;51.472;6.466;2023-05-07T08:56:11;6.47;;;4.00;;
21148;SDS011;10732;51.472;6.466;2023-05-07T08:58:37;5.80;;;3.88;;
21148;SDS011;10732;51.472;6.466;2023-05-07T09:01:03;7.88;;;3.92;;
21148;SDS011;10732;51.472;6.466;2023-05-07T09:03:32;7.00;;;3.88;;
21148;SDS011;10732;51.472;6.466;2023-05-07T09:05:58;6.57;;;3.97;;
21148;SDS011;10732;51.472;6.466;2023-05-07T09:08:24;10.32;;;4.43;;
21148;SDS011;10732;51.472;6.466;2023-05-07T09:10:51;6.60;;;4.13;;
21148;SDS011;10732;51.472;6.466;2023-05-07T09:13:17;7.18;;;4.22;;
21148;SDS011;10732;51.472;6.466;2023-05-07T09:15:43;6.50;;;4.00;;
21148;SDS011;10732;51.472;6.466;2023-05-07T09:18:08;5.72;;;4.00;;
21148;SDS011;10732;51.472;6.466;2023-05-07T09:20:36;7.68;;;3.80;;
21148;SDS011;10732;51.472;6.466;2023-05-07T09:23:02;6.13;;;4.20;;
21148;SDS011;10732;51.472;6.466;2023-05-07T09:25:28;5.70;;;3.50;;
21148;SDS011;10732;51.472;6.466;2023-05-07T09:27:55;5.60;;;3.70;;
21148;SDS011;10732;51.472;6.466;2023-05-07T09:30:20;7.25;;;3.60;;
21148;SDS011;10732;51.472;6.466;2023-05-07T09:32:46;7.07;;;3.70;;
21148;SDS011;10732;51.472;6.466;2023-05-07T09:35:15;6.82;;;3.85;;
21148;SDS011;10732;51.472;6.466;2023-05-07T09:37:41;6.55;;;4.05;;
21148;SDS011;10732;51.472;6.466;2023-05-07T09:40:07;6.10;;;3.80;;
21148;SDS011;10732;51.472;6.466;2023-05-07T09:42:44;7.10;;;3.88;;
21148;SDS011;10732;51.472;6.466;2023-05-07T09:45:12;4.35;;;3.67;;
21148;SDS011;10732;51.472;6.466;2023-05-07T09:47:37;5.53;;;3.80;;
21148;SDS011;10732;51.472;6.466;2023-05-07T09:50:06;6.07;;;3.75;;
21148;SDS011;10732;51.472;6.466;2023-05-07T09:52:35;7.28;;;4.30;;
21148;SDS011;10732;51.472;6.466;2023-05-07T09:55:01;5.28;;;3.75;;
21148;SDS011;10732;51.472;6.466;2023-05-07T09:57:28;5.60;;;3.63;;
21148;SDS011;10732;51.472;6.466;2023-05-07T09:59:55;5.00;;;3.72;;
21148;SDS011;10732;51.472;6.466;2023-05-07T10:02:22;5.70;;;4.15;;
21148;SDS011;10732;51.472;6.466;2023-05-07T10:04:50;6.28;;;3.95;;
21148;SDS011;10732;51.472;6.466;2023-05-07T10:07:17;4.55;;;3.50;;
21148;SDS011;10732;51.472;6.466;2023-05-07T10:09:43;5.68;;;3.25;;
21148;SDS011;10732;51.472;6.466;2023-05-07T10:12:09;5.55;;;3.53;;
21148;SDS011;10732;51.472;6.466;2023-05-07T10:14:35;6.22;;;3.40;;
21148;SDS011;10732;51.472;6.466;2023-05-07T10:17:02;5.97;;;3.40;;
21148;SDS011;10732;51.472;6.466;2023-05-07T10:19:27;5.70;;;3.15;;
21148;SDS011;10732;51.472;6.466;2023-05-07T10:21:55;5.80;;;2.95;;
21148;SDS011;10732;51.472;6.466;2023-05-07T10:24:28;4.97;;;3.20;;
21148;SDS011;10732;51.472;6.466;2023-05-07T10:26:57;4.97;;;3.38;;
21148;SDS011;10732;51.472;6.466;2023-05-07T10:32:14;5.57;;;3.03;;
21148;SDS011;10732;51.472;6.466;2023-05-07T10:34:45;4.95;;;2.85;;
21148;SDS011;10732;51.472;6.466;2023-05-07T10:37:16;3.88;;;2.72;;
21148;SDS011;10732;51.472;6.466;2023-05-07T10:39:42;5.22;;;3.30;;
21148;SDS011;10732;51.472;6.466;2023-05-07T10:42:11;4.10;;;3.30;;
21148;SDS011;10732;51.472;6.466;2023-05-07T10:44:38;6.78;;;3.28;;
21148;SDS011;10732;51.472;6.466;2023-05-07T10:47:07;4.97;;;3.08;;
21148;SDS011;10732;51.472;6.466;2023-05-07T10:54:41;3.92;;;2.83;;
21148;SDS011;10732;51.472;6.466;2023-05-07T10:59:55;6.00;;;3.15;;
21148;SDS011;10732;51.472;6.466;2023-05-07T11:02:21;6.00;;;3.30;;
21148;SDS011;10732;51.472;6.466;2023-05-07T11:07:48;7.60;;;3.75;;
21148;SDS011;10732;51.472;6.466;2023-05-07T11:10:20;7.63;;;3.55;;
21148;SDS011;10732;51.472;6.466;2023-05-07T11:12:47;6.30;;;3.28;;
21148;SDS011;10732;51.472;6.466;2023-05-07T11:15:14;3.78;;;2.67;;
21148;SDS011;10732;51.472;6.466;2023-05-07T11:17:52;8.20;;;3.63;;
21148;SDS011;10732;51.472;6.466;2023-05-07T11:20:18;5.07;;;2.97;;
21148;SDS011;10732;51.472;6.466;2023-05-07T11:22:44;5.95;;;2.95;;
21148;SDS011;10732;51.472;6.466;2023-05-07T11:25:09;6.15;;;3.20;;
21148;SDS011;10732;51.472;6.466;2023-05-07T11:27:35;7.00;;;3.00;;
21148;SDS011;10732;51.472;6.466;2023-05-07T11:30:01;6.88;;;2.83;;
21148;SDS011;10732;51.472;6.466;2023-05-07T11:32:31;4.22;;;2.90;;
21148;SDS011;10732;51.472;6.466;2023-05-07T11:34:57;4.88;;;3.00;;
21148;SDS011;10732;51.472;6.466;2023-05-07T11:37:25;7.05;;;3.58;;
21148;SDS011;10732;51.472;6.466;2023-05-07T11:39:51;4.05;;;2.88;;
21148;SDS011;10732;51.472;6.466;2023-05-07T11:42:32;5.30;;;3.05;;
21148;SDS011;10732;51.472;6.466;2023-05-07T11:44:59;4.93;;;4.18;;
21148;SDS011;10732;51.472;6.466;2023-05-07T11:47:26;5.18;;;3.08;;
21148;SDS011;10732;51.472;6.466;2023-05-07T11:49:54;6.95;;;3.00;;
21148;SDS011;10732;51.472;6.466;2023-05-07T11:52:20;4.40;;;3.10;;
21148;SDS011;10732;51.472;6.466;2023-05-07T11:54:50;6.47;;;2.90;;
21148;SDS011;10732;51.472;6.466;2023-05-07T11:57:17;5.43;;;3.10;;
21148;SDS011;10732;51.472;6.466;2023-05-07T11:59:43;8.27;;;3.17;;
21148;SDS011;10732;51.472;6.466;2023-05-07T12:02:09;7.50;;;2.65;;
21148;SDS011;10732;51.472;6.466;2023-05-07T12:04:35;6.43;;;3.00;;
21148;SDS011;10732;51.472;6.466;2023-05-07T12:07:02;5.32;;;2.70;;
21148;SDS011;10732;51.472;6.466;2023-05-07T12:09:28;5.45;;;3.10;;
21148;SDS011;10732;51.472;6.466;2023-05-07T12:11:54;4.75;;;2.78;;
21148;SDS011;10732;51.472;6.466;2023-05-07T12:14:21;4.75;;;2.85;;
21148;SDS011;10732;51.472;6.466;2023-05-07T12:16:46;4.90;;;2.90;;
21148;SDS011;10732;51.472;6.466;2023-05-07T12:19:13;6.15;;;3.20;;
21148;SDS011;10732;51.472;6.466;2023-05-07T12:21:40;5.18;;;3.00;;
21148;SDS011;10732;51.472;6.466;2023-05-07T12:24:05;3.95;;;2.65;;
21148;SDS011;10732;51.472;6.466;2023-05-07T12:26:32;7.53;;;2.67;;
21148;SDS011;10732;51.472;6.466;2023-05-07T12:29:02;5.57;;;2.80;;
21148;SDS011;10732;51.472;6.466;2023-05-07T12:31:28;5.03;;;2.90;;
21148;SDS011;10732;51.472;6.466;2023-05-07T12:33:54;5.20;;;2.72;;
21148;SDS011;10732;51.472;6.466;2023-05-07T12:36:19;5.40;;;2.90;;
21148;SDS011;10732;51.472;6.466;2023-05-07T12:38:46;6.60;;;3.35;;
21148;SDS011;10732;51.472;6.466;2023-05-07T12:41:14;5.00;;;3.40;;
21148;SDS011;10732;51.472;6.466;2023-05-07T12:43:41;4.55;;;3.00;;
21148;SDS011;10732;51.472;6.466;2023-05-07T12:46:09;5.47;;;3.15;;
21148;SDS011;10732;51.472;6.466;2023-05-07T12:48:38;4.60;;;2.75;;
21148;SDS011;10732;51.472;6.466;2023-05-07T12:51:08;7.30;;;3.15;;
21148;SDS011;10732;51.472;6.466;2023-05-07T12:53:39;5.57;;;3.20;;
21148;SDS011;10732;51.472;6.466;2023-05-07T12:56:07;7.07;;;3.50;;
21148;SDS011;10732;51.472;6.466;2023-05-07T12:58:33;6.70;;;3.63;;
21148;SDS011;10732;51.472;6.466;2023-05-07T13:01:00;6.70;;;3.47;;
21148;SDS011;10732;51.472;6.466;2023-05-07T13:03:32;4.40;;;3.10;;
21148;SDS011;10732;51.472;6.466;2023-05-07T13:05:59;4.10;;;2.70;;
21148;SDS011;10732;51.472;6.466;2023-05-07T13:08:33;3.65;;;2.78;;
21148;SDS011;10732;51.472;6.466;2023-05-07T13:11:02;4.63;;;2.85;;
21148;SDS011;10732;51.472;6.466;2023-05-07T13:13:32;4.53;;;2.80;;
21148;SDS011;10732;51.472;6.466;2023-05-07T13:15:59;5.85;;;3.00;;
21148;SDS011;10732;51.472;6.466;2023-05-07T13:18:26;5.68;;;2.95;;
21148;SDS011;10732;51.472;6.466;2023-05-07T13:20:54;5.57;;;3.00;;
21148;SDS011;10732;51.472;6.466;2023-05-07T13:23:19;5.50;;;2.90;;
21148;SDS011;10732;51.472;6.466;2023-05-07T13:25:45;4.07;;;2.92;;
21148;SDS011;10732;51.472;6.466;2023-05-07T13:28:11;5.53;;;2.90;;
21148;SDS011;10732;51.472;6.466;2023-05-07T13:30:37;6.13;;;3.33;;
21148;SDS011;10732;51.472;6.466;2023-05-07T13:33:02;3.15;;;2.75;;
21148;SDS011;10732;51.472;6.466;2023-05-07T13:35:28;5.35;;;3.25;;
21148;SDS011;10732;51.472;6.466;2023-05-07T13:37:54;6.00;;;3.30;;
21148;SDS011;10732;51.472;6.466;2023-05-07T13:40:21;6.63;;;3.50;;
21148;SDS011;10732;51.472;6.466;2023-05-07T13:42:47;5.28;;;3.33;;
21148;SDS011;10732;51.472;6.466;2023-05-07T13:45:12;10.07;;;4.40;;
21148;SDS011;10732;51.472;6.466;2023-05-07T13:47:39;7.25;;;4.05;;
21148;SDS011;10732;51.472;6.466;2023-05-07T13:50:08;6.28;;;3.40;;
21148;SDS011;10732;51.472;6.466;2023-05-07T13:52:36;4.68;;;3.38;;
21148;SDS011;10732;51.472;6.466;2023-05-07T13:55:02;5.28;;;3.17;;
21148;SDS011;10732;51.472;6.466;2023-05-07T13:57:28;3.95;;;3.50;;
21148;SDS011;10732;51.472;6.466;2023-05-07T13:59:54;4.70;;;3.40;;
21148;SDS011;10732;51.472;6.466;2023-05-07T14:02:20;4.90;;;3.03;;
21148;SDS011;10732;51.472;6.466;2023-05-07T14:04:46;5.15;;;2.83;;
21148;SDS011;10732;51.472;6.466;2023-05-07T14:07:11;4.90;;;2.80;;
21148;SDS011;10732;51.472;6.466;2023-05-07T14:09:37;3.45;;;2.72;;
21148;SDS011;10732;51.472;6.466;2023-05-07T14:12:02;6.97;;;2.75;;
21148;SDS011;10732;51.472;6.466;2023-05-07T14:14:28;3.72;;;2.97;;
21148;SDS011;10732;51.472;6.466;2023-05-07T14:16:53;5.60;;;3.20;;
21148;SDS011;10732;51.472;6.466;2023-05-07T14:19:19;3.95;;;2.90;;
21148;SDS011;10732;51.472;6.466;2023-05-07T14:21:44;5.45;;;2.83;;
21148;SDS011;10732;51.472;6.466;2023-05-07T14:24:10;6.25;;;2.90;;
21148;SDS011;10732;51.472;6.466;2023-05-07T14:26:36;3.97;;;2.70;;
21148;SDS011;10732;51.472;6.466;2023-05-07T14:29:02;4.90;;;2.70;;
21148;SDS011;10732;51.472;6.466;2023-05-07T14:31:28;3.35;;;2.70;;
21148;SDS011;10732;51.472;6.466;2023-05-07T14:33:54;4.47;;;2.58;;
21148;SDS011;10732;51.472;6.466;2023-05-07T14:36:20;3.10;;;2.30;;
21148;SDS011;10732;51.472;6.466;2023-05-07T14:38:46;4.78;;;2.83;;
21148;SDS011;10732;51.472;6.466;2023-05-07T14:41:12;3.25;;;2.55;;
21148;SDS011;10732;51.472;6.466;2023-05-07T14:43:37;4.22;;;2.90;;